sensor_id;sensor_type;location;lat;lon;timestamp;pressure;altitude;pressure_sealevel;temperature;humidity
42847;BME280;28495;49.916;14.536;2023-03-19T00:03:38;96744.53;;;6.98;53.50
42847;BME280;28495;49.916;14.536;2023-03-19T00:08:59;96741.13;;;7.09;53.66
42847;BME280;28495;49.916;14.536;2023-03-19T00:14:20;96739.94;;;7.24;53.52
42847;BME280;28495;49.916;14.536;2023-03-19T00:19:40;96748.06;;;7.20;53.32
42847;BME280;28495;49.916;14.536;2023-03-19T00:25:01;96749.81;;;7.19;53.50
42847;BME280;28495;49.916;14.536;2023-03-19T00:30:23;96743.22;;;7.26;53.12
42847;BME280;28495;49.916;14.536;2023-03-19T00:35:44;96738.16;;;7.36;53.31
42847;BME280;28495;49.916;14.536;2023-03-19T00:41:06;96745.47;;;7.31;52.98
42847;BME280;28495;49.916;14.536;2023-03-19T00:46:27;96744.38;;;7.45;53.49
42847;BME280;28495;49.916;14.536;2023-03-19T00:51:47;96741.88;;;7.55;53.18
42847;BME280;28495;49.916;14.536;2023-03-19T00:57:08;96738.97;;;7.37;52.86
42847;BME280;28495;49.916;14.536;2023-03-19T01:02:30;96742.78;;;7.10;52.69
42847;BME280;28495;49.916;14.536;2023-03-19T01:07:51;96739.34;;;6.98;52.89
42847;BME280;28495;49.916;14.536;2023-03-19T01:13:13;96741.50;;;6.93;52.78
42847;BME280;28495;49.916;14.536;2023-03-19T01:18:34;96742.06;;;6.96;52.69
42847;BME280;28495;49.916;14.536;2023-03-19T01:23:56;96730.88;;;6.50;52.75
42847;BME280;28495;49.916;14.536;2023-03-19T01:29:18;96736.34;;;6.34;52.77
42847;BME280;28495;49.916;14.536;2023-03-19T01:34:39;96736.69;;;6.18;52.97
42847;BME280;28495;49.916;14.536;2023-03-19T01:40:03;96742.28;;;6.01;53.34
42847;BME280;28495;49.916;14.536;2023-03-19T01:45:39;96719.94;;;6.11;53.85
42847;BME280;28495;49.916;14.536;2023-03-19T01:51:34;96716.75;;;6.07;53.41
42847;BME280;28495;49.916;14.536;2023-03-19T01:57:02;96736.03;;;5.79;53.35
42847;BME280;28495;49.916;14.536;2023-03-19T02:02:46;96726.00;;;5.74;53.74
42847;BME280;28495;49.916;14.536;2023-03-19T02:08:21;96715.28;;;5.68;53.82
42847;BME280;28495;49.916;14.536;2023-03-19T02:13:43;96705.53;;;5.71;53.77
42847;BME280;28495;49.916;14.536;2023-03-19T02:19:08;96708.78;;;5.86;53.94
42847;BME280;28495;49.916;14.536;2023-03-19T02:24:39;96708.97;;;5.72;53.50
42847;BME280;28495;49.916;14.536;2023-03-19T02:30:23;96728.56;;;5.87;54.09
42847;BME280;28495;49.916;14.536;2023-03-19T02:35:49;96723.09;;;5.79;53.70
42847;BME280;28495;49.916;14.536;2023-03-19T02:41:12;96721.03;;;5.95;54.00
42847;BME280;28495;49.916;14.536;2023-03-19T02:46:32;96735.69;;;5.84;53.77
42847;BME280;28495;49.916;14.536;2023-03-19T02:51:53;96737.50;;;5.94;53.99
42847;BME280;28495;49.916;14.536;2023-03-19T02:57:15;96725.59;;;6.16;54.13
42847;BME280;28495;49.916;14.536;2023-03-19T03:02:36;96731.00;;;6.13;53.38
42847;BME280;28495;49.916;14.536;2023-03-19T03:07:58;96735.25;;;5.90;53.67
42847;BME280;28495;49.916;14.536;2023-03-19T03:13:19;96725.59;;;6.05;53.66
42847;BME280;28495;49.916;14.536;2023-03-19T03:18:40;96732.09;;;5.98;53.45
42847;BME280;28495;49.916;14.536;2023-03-19T03:24:02;96739.84;;;5.86;53.49
42847;BME280;28495;49.916;14.536;2023-03-19T03:29:23;96738.03;;;5.75;53.45
42847;BME280;28495;49.916;14.536;2023-03-19T03:34:44;96739.34;;;5.57;53.50
42847;BME280;28495;49.916;14.536;2023-03-19T03:40:06;96748.03;;;5.56;53.25
42847;BME280;28495;49.916;14.536;2023-03-19T03:45:29;96754.34;;;5.76;53.82
42847;BME280;28495;49.916;14.536;2023-03-19T03:50:50;96738.66;;;5.90;53.89
42847;BME280;28495;49.916;14.536;2023-03-19T03:56:16;96747.22;;;5.79;53.38
42847;BME280;28495;49.916;14.536;2023-03-19T04:01:37;96749.09;;;5.77;53.43
42847;BME280;28495;49.916;14.536;2023-03-19T04:06:58;96746.53;;;5.89;53.46
42847;BME280;28495;49.916;14.536;2023-03-19T04:12:34;96745.56;;;6.03;53.23
42847;BME280;28495;49.916;14.536;2023-03-19T04:17:57;96743.72;;;6.05;53.66
42847;BME280;28495;49.916;14.536;2023-03-19T04:23:18;96740.53;;;6.13;53.16
42847;BME280;28495;49.916;14.536;2023-03-19T04:28:39;96754.28;;;6.02;52.96
42847;BME280;28495;49.916;14.536;2023-03-19T04:33:59;96753.97;;;5.69;52.88
42847;BME280;28495;49.916;14.536;2023-03-19T04:39:21;96760.19;;;5.67;53.12
42847;BME280;28495;49.916;14.536;2023-03-19T04:44:44;96772.59;;;5.74;53.58
42847;BME280;28495;49.916;14.536;2023-03-19T04:50:07;96765.25;;;5.92;53.38
42847;BME280;28495;49.916;14.536;2023-03-19T04:55:28;96756.78;;;5.90;53.12
42847;BME280;28495;49.916;14.536;2023-03-19T05:01:08;96770.38;;;5.81;53.10
42847;BME280;28495;49.916;14.536;2023-03-19T05:07:04;96766.91;;;5.93;53.15
42847;BME280;28495;49.916;14.536;2023-03-19T05:12:25;96752.16;;;6.07;53.21
42847;BME280;28495;49.916;14.536;2023-03-19T05:17:49;96761.59;;;6.08;53.37
42847;BME280;28495;49.916;14.536;2023-03-19T05:23:22;96756.06;;;6.13;53.02
42847;BME280;28495;49.916;14.536;2023-03-19T05:28:52;96761.25;;;5.88;52.77
42847;BME280;28495;49.916;14.536;2023-03-19T05:34:23;96769.25;;;5.85;52.95
42847;BME280;28495;49.916;14.536;2023-03-19T05:39:44;96767.63;;;5.95;53.05
42847;BME280;28495;49.916;14.536;2023-03-19T05:45:06;96775.09;;;6.00;52.87
42847;BME280;28495;49.916;14.536;2023-03-19T05:50:33;96761.19;;;5.77;52.46
42847;BME280;28495;49.916;14.536;2023-03-19T05:56:10;96782.16;;;5.61;52.67
42847;BME280;28495;49.916;14.536;2023-03-19T06:01:45;96789.47;;;5.43;53.05
42847;BME280;28495;49.916;14.536;2023-03-19T06:07:06;96789.69;;;5.40;52.99
42847;BME280;28495;49.916;14.536;2023-03-19T06:12:29;96798.19;;;5.66;53.17
42847;BME280;28495;49.916;14.536;2023-03-19T06:18:22;96795.69;;;5.64;52.91
42847;BME280;28495;49.916;14.536;2023-03-19T06:23:44;96798.09;;;5.68;53.12
42847;BME280;28495;49.916;14.536;2023-03-19T06:29:09;96817.13;;;5.67;53.41
42847;BME280;28495;49.916;14.536;2023-03-19T06:34:32;96812.50;;;5.83;53.78
42847;BME280;28495;49.916;14.536;2023-03-19T06:39:54;96816.34;;;5.53;53.73
42847;BME280;28495;49.916;14.536;2023-03-19T06:45:15;96796.75;;;5.62;53.90
42847;BME280;28495;49.916;14.536;2023-03-19T06:50:38;96801.31;;;5.83;54.11
42847;BME280;28495;49.916;14.536;2023-03-19T06:56:00;96810.69;;;5.97;53.68
42847;BME280;28495;49.916;14.536;2023-03-19T07:01:20;96811.28;;;6.13;54.09
42847;BME280;28495;49.916;14.536;2023-03-19T07:06:42;96836.66;;;6.08;53.37
42847;BME280;28495;49.916;14.536;2023-03-19T07:12:03;96841.19;;;6.17;53.53
42847;BME280;28495;49.916;14.536;2023-03-19T07:17:24;96845.31;;;6.20;53.77
42847;BME280;28495;49.916;14.536;2023-03-19T07:22:45;96856.34;;;6.35;53.64
42847;BME280;28495;49.916;14.536;2023-03-19T07:28:06;96844.47;;;6.44;53.69
42847;BME280;28495;49.916;14.536;2023-03-19T07:33:26;96855.78;;;6.78;56.07
42847;BME280;28495;49.916;14.536;2023-03-19T07:38:47;96854.88;;;7.02;54.11
42847;BME280;28495;49.916;14.536;2023-03-19T07:44:08;96857.22;;;7.05;54.12
42847;BME280;28495;49.916;14.536;2023-03-19T07:49:28;96852.72;;;6.96;53.86
42847;BME280;28495;49.916;14.536;2023-03-19T07:54:49;96853.91;;;7.03;54.04
42847;BME280;28495;49.916;14.536;2023-03-19T08:00:12;96867.16;;;7.23;54.06
42847;BME280;28495;49.916;14.536;2023-03-19T08:05:36;96866.91;;;7.14;53.77
42847;BME280;28495;49.916;14.536;2023-03-19T08:10:57;96875.03;;;7.10;53.70
42847;BME280;28495;49.916;14.536;2023-03-19T08:16:17;96872.94;;;7.15;54.13
42847;BME280;28495;49.916;14.536;2023-03-19T08:21:38;96862.91;;;7.22;54.11
42847;BME280;28495;49.916;14.536;2023-03-19T08:26:59;96853.69;;;7.17;53.28
42847;BME280;28495;49.916;14.536;2023-03-19T08:32:20;96858.19;;;7.15;53.50
42847;BME280;28495;49.916;14.536;2023-03-19T08:37:41;96849.94;;;7.22;53.23
42847;BME280;28495;49.916;14.536;2023-03-19T08:43:02;96859.03;;;7.27;53.14
42847;BME280;28495;49.916;14.536;2023-03-19T08:48:23;96859.03;;;7.27;53.20
42847;BME280;28495;49.916;14.536;2023-03-19T08:53:45;96853.94;;;7.37;53.49
42847;BME280;28495;49.916;14.536;2023-03-19T08:59:06;96857.72;;;7.56;53.30
42847;BME280;28495;49.916;14.536;2023-03-19T09:04:27;96866.91;;;7.60;52.84
42847;BME280;28495;49.916;14.536;2023-03-19T09:09:48;96858.53;;;7.68;52.67
42847;BME280;28495;49.916;14.536;2023-03-19T09:15:09;96864.91;;;7.75;52.68
42847;BME280;28495;49.916;14.536;2023-03-19T09:20:30;96850.84;;;7.77;52.30
42847;BME280;28495;49.916;14.536;2023-03-19T09:25:51;96849.63;;;7.93;52.67
42847;BME280;28495;49.916;14.536;2023-03-19T09:31:12;96846.84;;;8.17;52.09
42847;BME280;28495;49.916;14.536;2023-03-19T09:36:33;96853.19;;;8.36;51.83
42847;BME280;28495;49.916;14.536;2023-03-19T09:42:07;96857.50;;;8.47;51.91
42847;BME280;28495;49.916;14.536;2023-03-19T09:47:35;96849.38;;;8.73;54.10
42847;BME280;28495;49.916;14.536;2023-03-19T09:58:32;96841.84;;;9.22;52.20
42847;BME280;28495;49.916;14.536;2023-03-19T10:04:26;96854.19;;;9.29;51.55
42847;BME280;28495;49.916;14.536;2023-03-19T10:15:35;96844.56;;;9.51;51.18
42847;BME280;28495;49.916;14.536;2023-03-19T10:21:15;96840.03;;;9.53;51.32
42847;BME280;28495;49.916;14.536;2023-03-19T10:26:38;96844.22;;;9.66;51.20
42847;BME280;28495;49.916;14.536;2023-03-19T10:37:33;96836.03;;;10.00;51.90
42847;BME280;28495;49.916;14.536;2023-03-19T10:48:26;96831.16;;;10.36;50.96
42847;BME280;28495;49.916;14.536;2023-03-19T10:53:51;96822.66;;;10.44;51.10
42847;BME280;28495;49.916;14.536;2023-03-19T10:59:24;96816.06;;;10.59;51.07
42847;BME280;28495;49.916;14.536;2023-03-19T11:04:46;96817.13;;;10.76;50.57
42847;BME280;28495;49.916;14.536;2023-03-19T11:10:14;96821.66;;;10.84;50.85
42847;BME280;28495;49.916;14.536;2023-03-19T11:15:36;96815.00;;;11.00;50.43
42847;BME280;28495;49.916;14.536;2023-03-19T11:21:00;96807.56;;;11.15;50.68
42847;BME280;28495;49.916;14.536;2023-03-19T11:26:24;96803.09;;;11.35;50.92
42847;BME280;28495;49.916;14.536;2023-03-19T11:32:08;96805.13;;;11.41;50.67
42847;BME280;28495;49.916;14.536;2023-03-19T11:48:58;96796.19;;;11.43;50.06
42847;BME280;28495;49.916;14.536;2023-03-19T12:00:33;96785.56;;;11.45;50.23
42847;BME280;28495;49.916;14.536;2023-03-19T12:06:20;96783.81;;;11.46;50.07
42847;BME280;28495;49.916;14.536;2023-03-19T12:12:19;96783.59;;;11.57;49.98
42847;BME280;28495;49.916;14.536;2023-03-19T12:23:51;96782.22;;;11.81;50.37
42847;BME280;28495;49.916;14.536;2023-03-19T12:29:31;96775.81;;;11.93;49.78
42847;BME280;28495;49.916;14.536;2023-03-19T12:35:04;96773.00;;;12.04;50.07
42847;BME280;28495;49.916;14.536;2023-03-19T12:46:03;96773.16;;;12.21;50.29
42847;BME280;28495;49.916;14.536;2023-03-19T12:51:32;96764.03;;;12.25;49.39
42847;BME280;28495;49.916;14.536;2023-03-19T12:57:41;96762.63;;;12.31;49.68
42847;BME280;28495;49.916;14.536;2023-03-19T13:03:00;96771.19;;;12.41;49.64
42847;BME280;28495;49.916;14.536;2023-03-19T13:08:38;96774.63;;;12.42;49.24
42847;BME280;28495;49.916;14.536;2023-03-19T13:25:02;96770.28;;;12.77;50.03
42847;BME280;28495;49.916;14.536;2023-03-19T13:30:25;96765.91;;;12.59;49.03
42847;BME280;28495;49.916;14.536;2023-03-19T13:35:50;96778.13;;;12.50;48.81
42847;BME280;28495;49.916;14.536;2023-03-19T13:46:54;96767.91;;;12.39;49.09
42847;BME280;28495;49.916;14.536;2023-03-19T13:57:37;96761.03;;;12.38;48.94
42847;BME280;28495;49.916;14.536;2023-03-19T14:02:58;96759.38;;;12.37;49.08
42847;BME280;28495;49.916;14.536;2023-03-19T14:08:26;96761.72;;;12.40;49.17
42847;BME280;28495;49.916;14.536;2023-03-19T14:13:50;96763.06;;;12.44;49.53
42847;BME280;28495;49.916;14.536;2023-03-19T14:19:16;96765.97;;;12.41;49.28
42847;BME280;28495;49.916;14.536;2023-03-19T14:24:38;96775.69;;;12.31;49.26
42847;BME280;28495;49.916;14.536;2023-03-19T14:35:46;96777.56;;;12.39;49.69
42847;BME280;28495;49.916;14.536;2023-03-19T14:41:14;96769.41;;;12.24;49.42
42847;BME280;28495;49.916;14.536;2023-03-19T14:52:31;96773.41;;;12.10;50.00
42847;BME280;28495;49.916;14.536;2023-03-19T14:57:55;96764.25;;;12.14;50.08
42847;BME280;28495;49.916;14.536;2023-03-19T15:03:30;96770.16;;;12.16;50.17
42847;BME280;28495;49.916;14.536;2023-03-19T15:08:51;96771.81;;;12.17;50.12
42847;BME280;28495;49.916;14.536;2023-03-19T15:20:19;96759.19;;;12.12;50.43
42847;BME280;28495;49.916;14.536;2023-03-19T15:25:51;96744.78;;;12.08;50.10
42847;BME280;28495;49.916;14.536;2023-03-19T15:31:17;96742.25;;;11.98;50.00
42847;BME280;28495;49.916;14.536;2023-03-19T15:37:00;96750.66;;;11.92;50.49
42847;BME280;28495;49.916;14.536;2023-03-19T15:42:25;96750.78;;;11.90;50.49
42847;BME280;28495;49.916;14.536;2023-03-19T15:47:59;96752.72;;;11.88;50.48
42847;BME280;28495;49.916;14.536;2023-03-19T15:53:24;96758.19;;;11.77;51.00
42847;BME280;28495;49.916;14.536;2023-03-19T15:58:49;96763.56;;;11.76;51.25
42847;BME280;28495;49.916;14.536;2023-03-19T16:04:20;96767.88;;;11.85;51.78
42847;BME280;28495;49.916;14.536;2023-03-19T16:09:42;96780.16;;;11.84;51.82
42847;BME280;28495;49.916;14.536;2023-03-19T16:20:42;96791.16;;;11.78;52.33
42847;BME280;28495;49.916;14.536;2023-03-19T16:26:29;96799.69;;;11.80;52.74
42847;BME280;28495;49.916;14.536;2023-03-19T16:32:02;96802.16;;;11.82;52.35
42847;BME280;28495;49.916;14.536;2023-03-19T16:42:51;96816.31;;;11.61;51.91
42847;BME280;28495;49.916;14.536;2023-03-19T16:48:13;96831.56;;;11.56;52.81
42847;BME280;28495;49.916;14.536;2023-03-19T16:53:34;96841.84;;;11.29;53.23
42847;BME280;28495;49.916;14.536;2023-03-19T16:58:55;96843.88;;;10.98;53.49
42847;BME280;28495;49.916;14.536;2023-03-19T17:04:16;96848.69;;;10.83;54.29
42847;BME280;28495;49.916;14.536;2023-03-19T17:09:37;96862.84;;;10.71;55.12
42847;BME280;28495;49.916;14.536;2023-03-19T17:14:58;96866.16;;;10.82;55.82
42847;BME280;28495;49.916;14.536;2023-03-19T17:20:21;96866.56;;;10.88;56.38
42847;BME280;28495;49.916;14.536;2023-03-19T17:25:43;96873.44;;;10.89;56.67
42847;BME280;28495;49.916;14.536;2023-03-19T17:31:13;96876.84;;;10.79;56.54
42847;BME280;28495;49.916;14.536;2023-03-19T17:36:38;96877.53;;;10.81;56.71
42847;BME280;28495;49.916;14.536;2023-03-19T17:41:59;96873.97;;;10.82;56.97
42847;BME280;28495;49.916;14.536;2023-03-19T17:47:20;96882.22;;;10.68;56.93
42847;BME280;28495;49.916;14.536;2023-03-19T17:52:41;96880.72;;;10.65;57.05
42847;BME280;28495;49.916;14.536;2023-03-19T17:58:16;96887.16;;;10.71;57.48
42847;BME280;28495;49.916;14.536;2023-03-19T18:03:37;96890.44;;;10.44;57.30
42847;BME280;28495;49.916;14.536;2023-03-19T18:08:58;96893.56;;;10.37;57.82
42847;BME280;28495;49.916;14.536;2023-03-19T18:14:19;96890.88;;;10.39;58.31
42847;BME280;28495;49.916;14.536;2023-03-19T18:19:41;96898.50;;;10.31;58.62
42847;BME280;28495;49.916;14.536;2023-03-19T18:25:05;96892.03;;;10.25;58.84
42847;BME280;28495;49.916;14.536;2023-03-19T18:30:28;96891.94;;;10.27;59.30
42847;BME280;28495;49.916;14.536;2023-03-19T18:35:50;96895.75;;;10.22;59.20
42847;BME280;28495;49.916;14.536;2023-03-19T18:41:20;96896.41;;;10.15;59.30
42847;BME280;28495;49.916;14.536;2023-03-19T18:46:55;96902.34;;;10.36;59.99
42847;BME280;28495;49.916;14.536;2023-03-19T18:52:16;96898.22;;;10.34;59.42
42847;BME280;28495;49.916;14.536;2023-03-19T18:57:52;96893.47;;;10.39;59.81
42847;BME280;28495;49.916;14.536;2023-03-19T19:03:16;96897.66;;;10.20;59.88
42847;BME280;28495;49.916;14.536;2023-03-19T19:08:37;96901.47;;;10.06;60.18
42847;BME280;28495;49.916;14.536;2023-03-19T19:13:59;96900.38;;;10.09;60.49
42847;BME280;28495;49.916;14.536;2023-03-19T19:19:23;96897.13;;;10.17;60.51
42847;BME280;28495;49.916;14.536;2023-03-19T19:24:45;96892.81;;;9.96;60.33
42847;BME280;28495;49.916;14.536;2023-03-19T19:30:13;96894.44;;;9.87;60.28
42847;BME280;28495;49.916;14.536;2023-03-19T19:35:35;96891.69;;;9.79;60.43
42847;BME280;28495;49.916;14.536;2023-03-19T19:40:57;96890.56;;;9.82;61.00
42847;BME280;28495;49.916;14.536;2023-03-19T19:46:22;96887.59;;;9.96;60.88
42847;BME280;28495;49.916;14.536;2023-03-19T19:51:42;96892.97;;;10.04;60.64
42847;BME280;28495;49.916;14.536;2023-03-19T19:57:16;96887.59;;;9.96;60.84
42847;BME280;28495;49.916;14.536;2023-03-19T20:02:47;96887.84;;;9.93;60.91
42847;BME280;28495;49.916;14.536;2023-03-19T20:08:08;96887.75;;;9.95;60.85
42847;BME280;28495;49.916;14.536;2023-03-19T20:13:32;96891.13;;;9.75;61.23
42847;BME280;28495;49.916;14.536;2023-03-19T20:18:54;96898.25;;;9.83;61.42
42847;BME280;28495;49.916;14.536;2023-03-19T20:24:15;96896.03;;;9.79;61.39
42847;BME280;28495;49.916;14.536;2023-03-19T20:29:38;96902.78;;;9.81;61.46
42847;BME280;28495;49.916;14.536;2023-03-19T20:34:59;96901.66;;;9.74;61.31
42847;BME280;28495;49.916;14.536;2023-03-19T20:40:23;96909.13;;;9.57;60.96
42847;BME280;28495;49.916;14.536;2023-03-19T20:45:45;96909.84;;;9.38;61.18
42847;BME280;28495;49.916;14.536;2023-03-19T20:51:16;96913.34;;;9.27;61.00
42847;BME280;28495;49.916;14.536;2023-03-19T20:56:38;96924.72;;;9.05;61.17
42847;BME280;28495;49.916;14.536;2023-03-19T21:02:01;96941.97;;;8.85;61.22
42847;BME280;28495;49.916;14.536;2023-03-19T21:07:30;96940.66;;;8.91;61.77
42847;BME280;28495;49.916;14.536;2023-03-19T21:12:56;96946.22;;;8.86;61.87
42847;BME280;28495;49.916;14.536;2023-03-19T21:18:17;96945.75;;;8.81;62.30
42847;BME280;28495;49.916;14.536;2023-03-19T21:23:39;96948.19;;;8.94;61.96
42847;BME280;28495;49.916;14.536;2023-03-19T21:29:05;96934.75;;;8.89;62.25
42847;BME280;28495;49.916;14.536;2023-03-19T21:34:27;96937.72;;;8.84;62.16
42847;BME280;28495;49.916;14.536;2023-03-19T21:39:49;96940.56;;;8.81;62.70
42847;BME280;28495;49.916;14.536;2023-03-19T21:45:19;96942.22;;;8.82;62.71
42847;BME280;28495;49.916;14.536;2023-03-19T21:50:41;96939.94;;;8.89;63.19
42847;BME280;28495;49.916;14.536;2023-03-19T21:56:02;96943.69;;;8.96;63.03
42847;BME280;28495;49.916;14.536;2023-03-19T22:01:24;96946.88;;;8.99;62.93
42847;BME280;28495;49.916;14.536;2023-03-19T22:06:44;96936.59;;;8.98;63.40
42847;BME280;28495;49.916;14.536;2023-03-19T22:12:25;96932.78;;;9.02;63.25
42847;BME280;28495;49.916;14.536;2023-03-19T22:17:47;96931.66;;;8.95;63.18
42847;BME280;28495;49.916;14.536;2023-03-19T22:23:11;96928.84;;;9.08;63.60
42847;BME280;28495;49.916;14.536;2023-03-19T22:28:33;96922.06;;;9.17;63.90
42847;BME280;28495;49.916;14.536;2023-03-19T22:33:54;96923.34;;;9.22;63.55
42847;BME280;28495;49.916;14.536;2023-03-19T22:39:16;96931.09;;;9.12;63.74
42847;BME280;28495;49.916;14.536;2023-03-19T22:44:37;96923.28;;;9.12;63.65
42847;BME280;28495;49.916;14.536;2023-03-19T22:49:57;96928.22;;;9.15;63.94
42847;BME280;28495;49.916;14.536;2023-03-19T22:55:19;96915.72;;;9.09;63.41
42847;BME280;28495;49.916;14.536;2023-03-19T23:00:40;96918.31;;;9.09;63.77
42847;BME280;28495;49.916;14.536;2023-03-19T23:06:14;96922.50;;;9.00;63.53
42847;BME280;28495;49.916;14.536;2023-03-19T23:11:50;96915.03;;;9.07;63.61
42847;BME280;28495;49.916;14.536;2023-03-19T23:17:14;96923.59;;;8.98;63.65
42847;BME280;28495;49.916;14.536;2023-03-19T23:22:36;96924.41;;;8.98;64.00
42847;BME280;28495;49.916;14.536;2023-03-19T23:28:00;96928.41;;;9.03;63.65
42847;BME280;28495;49.916;14.536;2023-03-19T23:33:21;96927.06;;;8.87;63.92
42847;BME280;28495;49.916;14.536;2023-03-19T23:38:46;96932.72;;;8.92;64.27
42847;BME280;28495;49.916;14.536;2023-03-19T23:44:10;96924.72;;;8.84;64.36
42847;BME280;28495;49.916;14.536;2023-03-19T23:49:33;96923.78;;;8.85;64.54
42847;BME280;28495;49.916;14.536;2023-03-19T23:54:54;96927.56;;;8.81;63.88
